createdAt,value
2023-01-26T09:36:18.766Z,19.02
2023-01-26T09:38:46.005Z,19.42
2023-01-26T09:44:04.605Z,23.25
2023-01-26T09:46:50.071Z,22.75
2023-01-26T09:49:43.288Z,24.67
2023-01-26T09:52:18.140Z,26.08
2023-01-26T09:54:47.234Z,22.23
2023-01-26T09:57:18.044Z,26.77
2023-01-26T09:59:58.405Z,29.30
2023-01-26T10:02:47.038Z,30.92
2023-01-26T10:05:32.110Z,23.95
2023-01-26T10:07:59.070Z,23.58
2023-01-26T10:10:38.047Z,23.60
2023-01-26T10:13:05.125Z,24.92
2023-01-26T10:15:39.193Z,24.17
2023-01-26T10:18:17.974Z,24.33
2023-01-26T10:20:50.701Z,25.63
2023-01-26T10:23:23.425Z,24.55
2023-01-26T10:25:52.126Z,24.65
2023-01-26T10:28:29.296Z,24.42
2023-01-26T10:30:56.611Z,23.20
2023-01-26T10:33:26.600Z,23.58
2023-01-26T10:35:53.942Z,24.77
2023-01-26T10:38:32.917Z,22.73
2023-01-26T10:41:19.684Z,22.73
2023-01-26T10:43:58.520Z,22.83
2023-01-26T10:46:35.591Z,21.17
2023-01-26T10:49:14.712Z,20.65
2023-01-26T10:52:03.007Z,19.92
2023-01-26T10:54:29.865Z,20.77
2023-01-26T10:57:04.742Z,21.65
2023-01-26T10:59:31.563Z,19.92
2023-01-26T11:02:18.112Z,20.40
2023-01-26T11:05:09.609Z,22.73
2023-01-26T11:07:38.027Z,21.98
2023-01-26T11:10:23.892Z,24.27
2023-01-26T11:12:52.272Z,23.35
2023-01-26T11:15:25.183Z,24.23
2023-01-26T11:18:05.021Z,25.10
2023-01-26T11:20:49.313Z,25.00
2023-01-26T11:23:16.089Z,25.67
2023-01-26T11:26:20.258Z,27.27
2023-01-26T11:29:14.344Z,26.38
2023-01-26T11:31:55.676Z,27.02
2023-01-26T11:34:28.737Z,28.57
2023-01-26T11:36:58.768Z,29.38
2023-01-26T11:39:37.247Z,29.65
2023-01-26T11:42:41.671Z,28.98
2023-01-26T11:45:35.783Z,29.13
2023-01-26T11:48:15.273Z,31.17
2023-01-26T11:51:07.992Z,30.08
2023-01-26T11:53:34.750Z,33.30
2023-01-26T11:56:10.903Z,32.33
2023-01-26T11:59:11.084Z,32.17
2023-01-26T12:01:47.087Z,42.03
2023-01-26T12:04:22.315Z,38.95
2023-01-26T12:06:55.598Z,37.60
2023-01-26T12:09:33.428Z,40.03
2023-01-26T12:12:14.551Z,40.95
2023-01-26T12:15:29.875Z,40.37
2023-01-26T12:18:50.786Z,37.45
2023-01-26T12:21:23.479Z,36.53
2023-01-26T12:24:35.862Z,38.70
2023-01-26T12:27:02.438Z,36.60
2023-01-26T12:29:58.382Z,34.35
2023-01-26T12:32:25.854Z,35.20
2023-01-26T12:34:52.828Z,36.88
2023-01-26T12:37:31.861Z,38.38
2023-01-26T12:40:23.391Z,35.42
2023-01-26T12:42:58.281Z,37.25
2023-01-26T12:45:30.583Z,39.00
2023-01-26T12:48:16.550Z,39.67
2023-01-26T12:50:48.982Z,36.53
2023-01-26T12:53:46.765Z,36.33
2023-01-26T12:56:17.173Z,36.40
2023-01-26T12:58:47.197Z,35.08
2023-01-26T13:01:19.633Z,31.77
2023-01-26T13:03:56.935Z,32.60
2023-01-26T13:06:26.049Z,30.17
2023-01-26T13:09:00.445Z,32.38
2023-01-26T13:11:42.333Z,33.75
2023-01-26T13:14:33.386Z,31.55
2023-01-26T13:17:15.355Z,28.27
2023-01-26T13:19:42.192Z,28.40
2023-01-26T13:22:24.366Z,30.20
2023-01-26T13:24:58.244Z,28.20
2023-01-26T13:27:27.898Z,24.90
2023-01-26T13:29:55.790Z,24.67
2023-01-26T13:32:22.722Z,26.65
2023-01-26T13:35:03.103Z,25.40
2023-01-26T13:37:39.747Z,25.07
2023-01-26T13:40:18.628Z,25.63
2023-01-26T13:43:26.168Z,22.38
2023-01-26T13:46:00.853Z,23.10
2023-01-26T13:48:45.013Z,24.15
2023-01-26T13:51:24.827Z,22.73
2023-01-26T13:53:58.777Z,20.93
2023-01-26T13:56:39.576Z,20.40
2023-01-26T13:59:08.856Z,24.48
2023-01-26T14:01:42.711Z,19.92
2023-01-26T14:04:20.103Z,19.13
2023-01-26T14:06:54.391Z,20.00
2023-01-26T14:09:21.506Z,21.15
2023-01-26T14:11:59.844Z,19.13
2023-01-26T14:14:29.679Z,17.17
2023-01-26T14:17:00.227Z,16.83
2023-01-26T14:19:29.349Z,19.77
2023-01-26T14:22:00.276Z,17.25
2023-01-26T14:24:32.208Z,19.25
2023-01-26T14:26:59.281Z,15.35
2023-01-26T14:29:28.580Z,11.55
2023-01-26T14:31:58.172Z,14.27
2023-01-26T14:34:27.952Z,13.48
2023-01-26T14:37:14.586Z,12.57
2023-01-26T14:39:44.891Z,13.40
2023-01-26T14:42:17.578Z,13.18
2023-01-26T14:44:44.674Z,13.48
2023-01-26T14:47:45.389Z,12.88
2023-01-26T14:50:23.316Z,12.23
2023-01-26T14:52:50.499Z,11.80
2023-01-26T14:55:30.365Z,12.07
2023-01-26T14:57:59.199Z,11.43
2023-01-26T15:00:33.475Z,12.25
2023-01-26T15:03:05.818Z,13.10
2023-01-26T15:05:35.643Z,12.73
2023-01-26T15:08:05.749Z,12.80
2023-01-26T15:10:42.598Z,11.25
2023-01-26T15:13:15.425Z,12.25
2023-01-26T15:15:50.999Z,15.65
2023-01-26T15:18:20.936Z,13.45
2023-01-26T15:21:10.993Z,14.57
2023-01-26T15:23:46.297Z,13.88
2023-01-26T15:26:32.401Z,14.27
2023-01-26T15:29:01.284Z,14.45
2023-01-26T15:31:38.110Z,15.73
2023-01-26T15:34:06.635Z,15.73
2023-01-26T15:36:51.819Z,16.23
2023-01-26T15:39:20.604Z,14.43
2023-01-26T15:42:16.463Z,15.73
2023-01-26T15:44:43.289Z,15.32
2023-01-26T15:47:12.160Z,16.70
2023-01-26T15:49:39.589Z,17.00
2023-01-26T15:52:14.423Z,16.92
2023-01-26T15:54:41.481Z,16.08
2023-01-26T15:57:10.967Z,17.80
2023-01-26T15:59:38.867Z,18.92
2023-01-26T16:02:15.842Z,16.30
2023-01-26T16:04:43.454Z,15.90
2023-01-26T16:07:19.414Z,18.17
2023-01-26T16:09:48.437Z,16.92
2023-01-26T16:12:32.741Z,13.90
2023-01-26T16:14:59.908Z,20.50
2023-01-26T16:17:26.804Z,11.87
2023-01-26T16:19:53.797Z,11.60
2023-01-26T16:22:20.848Z,10.18
2023-01-26T16:24:47.744Z,14.75
2023-01-26T16:27:14.580Z,10.95
2023-01-26T16:29:41.496Z,8.90
2023-01-26T16:32:28.404Z,8.90
2023-01-26T16:34:55.195Z,10.18
2023-01-26T16:37:22.158Z,6.07
2023-01-26T16:39:49.185Z,5.70
2023-01-26T16:42:20.158Z,12.98
2023-01-26T16:44:47.775Z,10.52
2023-01-26T16:47:14.798Z,9.20
2023-01-26T16:49:41.841Z,10.40
2023-01-26T16:52:09.851Z,4.75
2023-01-26T16:54:36.753Z,7.25
2023-01-26T16:57:03.795Z,6.23
2023-01-26T16:59:30.573Z,5.82
2023-01-26T17:01:57.665Z,6.20
2023-01-26T17:04:24.608Z,6.47
2023-01-26T17:06:52.025Z,6.15
2023-01-26T17:09:20.601Z,5.60
2023-01-26T17:11:47.477Z,6.20
2023-01-26T17:14:14.385Z,5.10
2023-01-26T17:16:41.315Z,5.35
2023-01-26T17:19:09.383Z,5.32
2023-01-26T17:21:37.294Z,3.75
2023-01-26T17:24:04.548Z,4.55
2023-01-26T17:26:31.567Z,5.23
2023-01-26T17:28:58.485Z,4.50
2023-01-26T17:31:25.881Z,5.40
2023-01-26T17:33:54.295Z,5.03
2023-01-26T17:36:21.464Z,5.80
2023-01-26T17:38:49.111Z,5.13
2023-01-26T17:41:16.891Z,6.30
2023-01-26T17:43:44.229Z,5.70
2023-01-26T17:46:16.954Z,7.03
2023-01-26T17:48:45.483Z,5.65
2023-01-26T17:51:16.642Z,5.13
2023-01-26T17:53:45.532Z,5.65
2023-01-26T17:56:14.349Z,6.03
2023-01-26T17:58:41.668Z,5.28
2023-01-26T18:01:10.063Z,4.68
2023-01-26T18:03:41.061Z,5.72
2023-01-26T18:06:08.289Z,5.20
2023-01-26T18:08:37.080Z,6.65
2023-01-26T18:11:06.561Z,8.05
2023-01-26T18:13:34.170Z,7.22
2023-01-26T18:16:01.589Z,5.60
2023-01-26T18:18:29.852Z,8.18
2023-01-26T18:20:57.367Z,3.20
2023-01-26T18:23:25.028Z,3.70
2023-01-26T18:25:52.677Z,4.90
2023-01-26T18:28:19.730Z,4.50
2023-01-26T18:30:46.645Z,6.10
2023-01-26T18:33:13.891Z,5.72
2023-01-26T18:35:40.803Z,5.85
2023-01-26T18:38:07.716Z,6.97
2023-01-26T18:40:34.556Z,15.32
2023-01-26T18:43:01.604Z,9.63
2023-01-26T18:45:28.523Z,10.82
2023-01-26T18:47:55.553Z,9.23
2023-01-26T18:50:22.710Z,6.97
2023-01-26T18:52:49.564Z,6.32
2023-01-26T18:55:16.688Z,6.80
2023-01-26T18:57:43.713Z,6.10
2023-01-26T19:00:11.194Z,4.75
2023-01-26T19:02:38.622Z,5.35
2023-01-26T19:05:09.253Z,6.37
2023-01-26T19:07:36.241Z,5.30
2023-01-26T19:10:05.640Z,5.47
2023-01-26T19:12:32.510Z,4.80
2023-01-26T19:14:59.461Z,4.00
2023-01-26T19:17:26.269Z,4.15
2023-01-26T19:19:53.163Z,4.35
2023-01-26T19:22:19.998Z,4.07
2023-01-26T19:24:46.894Z,4.45
2023-01-26T19:27:13.822Z,12.65
2023-01-26T19:29:40.687Z,4.25
2023-01-26T19:32:07.617Z,4.57
2023-01-26T19:34:35.140Z,3.58
2023-01-26T19:37:02.164Z,3.65
2023-01-26T19:39:30.227Z,3.72
2023-01-26T19:41:57.095Z,3.65
2023-01-26T19:44:24.256Z,3.92
2023-01-26T19:46:53.609Z,5.15
2023-01-26T19:49:21.495Z,4.30
2023-01-26T19:51:49.122Z,3.80
2023-01-26T19:54:16.237Z,3.60
2023-01-26T19:56:43.249Z,3.45
2023-01-26T19:59:12.767Z,3.20
2023-01-26T20:01:39.792Z,4.03
2023-01-26T20:04:09.550Z,3.40
2023-01-26T20:06:37.328Z,3.75
2023-01-26T20:09:05.398Z,3.40
2023-01-26T20:11:32.556Z,3.22
2023-01-26T20:14:02.192Z,3.60
2023-01-26T20:16:29.548Z,3.88
2023-01-26T20:18:57.721Z,3.25
2023-01-26T20:21:25.152Z,3.13
2023-01-26T20:23:55.385Z,3.60
2023-01-26T20:26:23.803Z,3.88
2023-01-26T20:28:50.792Z,4.35
2023-01-26T20:31:21.133Z,4.45
2023-01-26T20:33:49.500Z,4.35
2023-01-26T20:36:19.265Z,4.07
2023-01-26T20:38:46.996Z,3.55
2023-01-26T20:41:17.603Z,3.20
2023-01-26T20:43:58.651Z,3.25
2023-01-26T20:46:29.469Z,3.33
2023-01-26T20:48:56.860Z,3.50
2023-01-26T20:51:29.519Z,3.30
2023-01-26T20:53:57.533Z,3.90
2023-01-26T20:56:24.599Z,3.90
2023-01-26T20:58:55.560Z,3.38
2023-01-26T21:01:23.772Z,3.75
2023-01-26T21:03:51.514Z,4.07
2023-01-26T21:06:20.074Z,3.83
2023-01-26T21:08:48.048Z,3.97
2023-01-26T21:11:16.593Z,4.10
2023-01-26T21:13:44.491Z,4.28
2023-01-26T21:16:14.256Z,4.18
2023-01-26T21:18:41.773Z,3.70
2023-01-26T21:21:12.181Z,4.25
2023-01-26T21:23:39.242Z,4.18
2023-01-26T21:26:11.761Z,4.05
2023-01-26T21:28:39.062Z,4.50
2023-01-26T21:31:14.648Z,4.70
2023-01-26T21:33:43.669Z,4.43
2023-01-26T21:36:15.672Z,4.60
2023-01-26T21:38:45.164Z,5.30
2023-01-26T21:41:34.637Z,5.40
2023-01-26T21:44:07.171Z,5.23
2023-01-26T21:46:35.029Z,6.18
2023-01-26T21:49:02.652Z,5.50
2023-01-26T21:51:48.924Z,5.37
2023-01-26T21:54:16.564Z,5.50
2023-01-26T21:56:43.569Z,5.45
2023-01-26T21:59:14.806Z,6.63
2023-01-26T22:01:54.654Z,6.40
2023-01-26T22:04:28.997Z,6.00
2023-01-26T22:06:56.999Z,6.60
2023-01-26T22:09:25.646Z,6.85
2023-01-26T22:11:52.764Z,6.47
2023-01-26T22:14:22.714Z,6.03
2023-01-26T22:16:54.499Z,6.30
2023-01-26T22:19:23.769Z,6.60
2023-01-26T22:21:51.810Z,10.07
2023-01-26T22:24:22.295Z,11.75
2023-01-26T22:26:49.681Z,13.60
2023-01-26T22:32:03.307Z,13.30
2023-01-26T22:34:34.803Z,13.43
2023-01-26T22:37:07.451Z,13.55
2023-01-26T22:39:51.821Z,13.50
2023-01-26T22:42:27.161Z,14.80
2023-01-26T22:45:02.184Z,13.93
2023-01-26T22:47:32.570Z,15.47
2023-01-26T22:50:08.309Z,14.80
2023-01-26T22:53:06.697Z,15.02
2023-01-26T22:55:45.548Z,14.82
2023-01-26T23:01:11.654Z,14.57
2023-01-26T23:03:46.844Z,15.00
2023-01-26T23:06:36.983Z,15.27
2023-01-26T23:09:12.443Z,15.45
2023-01-26T23:11:39.429Z,15.73
2023-01-26T23:14:06.330Z,15.30
2023-01-26T23:16:33.249Z,15.93
2023-01-26T23:19:00.201Z,16.63
2023-01-26T23:21:28.333Z,16.02
2023-01-26T23:23:55.207Z,16.85
2023-01-26T23:26:22.476Z,16.15
2023-01-26T23:28:49.349Z,16.92
2023-01-26T23:31:17.917Z,16.25
2023-01-26T23:33:45.426Z,16.98
2023-01-26T23:36:13.793Z,17.67
2023-01-26T23:38:41.110Z,19.48
2023-01-26T23:41:12.064Z,19.30
2023-01-26T23:43:39.318Z,20.38
2023-01-26T23:46:08.192Z,20.98
2023-01-26T23:48:35.104Z,21.52
2023-01-26T23:51:05.230Z,19.90
2023-01-26T23:53:32.453Z,18.40
2023-01-26T23:56:03.369Z,19.50
2023-01-26T23:58:30.183Z,18.50
